Time;durP1;ratioP1;P1;durP2;ratioP2;P2;SDS_P1;SDS_P2;PMS_P1;PMS_P2;Temp;Humidity;BMP_temperature;BMP_pressure;BME280_temperature;BME280_humidity;BME280_pressure;Samples;Min_cycle;Max_cycle;Signal;HPM_P1;HPM_P2
2022/11/24 00:02:07;;;;;;;15.07;9.87;;;7.60;93.60;;;;;;5012947;28;20121;-77
2022/11/24 00:04:32;;;;;;;13.37;8.93;;;7.60;93.70;;;;;;5013346;28;20432;-77
2022/11/24 00:06:58;;;;;;;14.97;9.60;;;7.60;93.80;;;;;;5013465;28;20037;-77
2022/11/24 00:09:24;;;;;;;13.70;9.23;;;7.60;93.70;;;;;;5013181;28;20120;-77
2022/11/24 00:11:49;;;;;;;12.77;9.07;;;7.60;93.60;;;;;;5012900;28;20034;-78
2022/11/24 00:14:15;;;;;;;13.73;9.13;;;7.50;93.50;;;;;;5012876;28;20460;-78
2022/11/24 00:16:41;;;;;;;15.07;9.30;;;7.50;93.60;;;;;;5013067;28;20061;-77
2022/11/24 00:19:08;;;;;;;14.23;9.37;;;7.50;93.50;;;;;;5013312;28;20465;-78
2022/11/24 00:21:35;;;;;;;15.87;9.97;;;7.50;93.40;;;;;;5013404;28;20037;-77
2022/11/24 00:24:01;;;;;;;13.40;9.07;;;7.50;93.40;;;;;;5012842;28;20080;-76
2022/11/24 00:26:32;;;;;;;15.20;10.30;;;7.50;93.50;;;;;;5012948;28;20369;-77
2022/11/24 00:29:01;;;;;;;16.07;10.60;;;7.50;93.40;;;;;;5012898;28;20523;-77
2022/11/24 00:31:32;;;;;;;19.63;10.97;;;7.40;93.30;;;;;;5013171;28;20034;-78
2022/11/24 00:34:01;;;;;;;19.97;12.27;;;7.40;93.30;;;;;;5012960;28;20045;-77
2022/11/24 00:36:29;;;;;;;16.43;11.43;;;7.40;93.30;;;;;;5013190;28;20080;-77
2022/11/24 00:39:00;;;;;;;24.03;11.97;;;7.40;93.30;;;;;;5013148;28;20091;-77
2022/11/24 00:41:27;;;;;;;18.90;12.47;;;7.30;93.20;;;;;;5012793;28;20496;-78
2022/11/24 00:43:53;;;;;;;20.53;13.23;;;7.30;93.20;;;;;;5012831;28;20034;-78
2022/11/24 00:46:19;;;;;;;19.27;12.90;;;7.30;93.10;;;;;;5012853;28;20512;-77
2022/11/24 00:48:45;;;;;;;18.03;12.63;;;7.30;93.10;;;;;;5012888;28;20037;-77
2022/11/24 00:51:14;;;;;;;18.70;11.90;;;7.30;93.10;;;;;;5013026;28;20030;-77
2022/11/24 00:53:40;;;;;;;14.87;10.60;;;7.30;93.00;;;;;;5012830;28;20436;-77
2022/11/24 00:56:07;;;;;;;17.37;10.43;;;7.30;92.90;;;;;;5012840;28;20492;-78
2022/11/24 00:58:33;;;;;;;21.10;10.77;;;7.20;92.90;;;;;;5012576;28;20041;-77
2022/11/24 01:01:05;;;;;;;16.17;11.33;;;7.20;92.90;;;;;;5012911;28;20373;-78
2022/11/24 01:03:32;;;;;;;15.07;9.70;;;7.20;92.90;;;;;;5012639;28;20034;-78
2022/11/24 01:06:15;;;;;;;13.93;10.00;;;7.10;93.00;;;;;;5013125;28;20038;-77
2022/11/24 01:08:42;;;;;;;15.03;10.47;;;7.10;93.10;;;;;;5012566;28;20061;-77
2022/11/24 01:11:28;;;;;;;17.33;10.40;;;7.10;93.10;;;;;;5012720;28;20041;-77
2022/11/24 01:13:56;;;;;;;18.20;10.17;;;7.10;93.20;;;;;;5011877;28;20404;-78
2022/11/24 01:16:33;;;;;;;18.67;11.70;;;7.10;93.20;;;;;;5012820;28;20121;-77
2022/11/24 01:19:00;;;;;;;17.47;10.57;;;7.00;93.20;;;;;;5012584;28;20177;-77
2022/11/24 01:21:26;;;;;;;17.73;10.87;;;7.00;93.20;;;;;;5012406;28;20033;-77
2022/11/24 01:23:52;;;;;;;15.47;9.97;;;7.00;93.40;;;;;;5013553;28;20058;-77
2022/11/24 01:26:20;;;;;;;16.50;10.40;;;7.00;93.40;;;;;;5016259;28;20073;-77
2022/11/24 01:28:51;;;;;;;18.77;10.40;;;7.00;93.50;;;;;;5015945;28;20130;-78
2022/11/24 01:31:16;;;;;;;17.23;9.90;;;7.00;93.40;;;;;;5015908;28;20034;-78
2022/11/24 01:33:42;;;;;;;16.00;9.80;;;7.00;93.60;;;;;;5015681;28;20030;-77
2022/11/24 01:36:08;;;;;;;15.13;9.47;;;7.00;93.40;;;;;;5015865;28;20038;-77
2022/11/24 01:38:33;;;;;;;15.03;9.03;;;6.90;93.40;;;;;;5015985;28;20535;-78
2022/11/24 01:41:12;;;;;;;12.77;8.30;;;6.90;93.40;;;;;;5016154;28;20038;-78
2022/11/24 01:43:39;;;;;;;20.03;8.90;;;6.90;93.40;;;;;;5015890;28;20034;-77
2022/11/24 01:46:14;;;;;;;13.53;8.10;;;6.90;93.50;;;;;;5015726;28;20038;-77
2022/11/24 01:48:45;;;;;;;12.23;8.60;;;6.90;93.50;;;;;;5015763;28;20054;-77
2022/11/24 01:51:18;;;;;;;14.70;8.67;;;6.90;93.60;;;;;;5015472;28;20515;-77
2022/11/24 01:53:49;;;;;;;11.97;8.10;;;6.90;93.60;;;;;;5015403;28;20038;-77
2022/11/24 01:56:15;;;;;;;15.00;9.10;;;6.90;93.60;;;;;;5015659;28;20489;-77
2022/11/24 01:58:45;;;;;;;13.43;9.17;;;6.90;93.70;;;;;;4995737;28;20038;-77
2022/11/24 02:01:11;;;;;;;20.33;8.90;;;6.90;93.80;;;;;;5012747;28;20041;-78
2022/11/24 02:03:41;;;;;;;14.63;9.43;;;6.90;93.80;;;;;;5012454;28;20095;-78
2022/11/24 02:06:19;;;;;;;15.07;8.60;;;6.90;93.80;;;;;;5014696;28;20034;-78
2022/11/24 02:09:00;;;;;;;13.03;8.03;;;6.90;93.80;;;;;;5015070;28;20042;-77
2022/11/24 02:11:29;;;;;;;13.77;8.87;;;6.90;93.90;;;;;;5014964;28;20076;-77
2022/11/24 02:13:56;;;;;;;12.77;8.83;;;6.90;93.90;;;;;;5014723;28;20052;-77
2022/11/24 02:16:22;;;;;;;12.27;8.40;;;6.90;93.90;;;;;;5015119;28;20030;-77
2022/11/24 02:18:47;;;;;;;14.73;8.27;;;6.90;93.80;;;;;;5014908;28;20109;-77
2022/11/24 02:21:15;;;;;;;13.63;8.43;;;6.90;93.80;;;;;;5014812;28;20026;-77
2022/11/24 02:23:46;;;;;;;13.83;9.00;;;6.90;93.80;;;;;;5014839;28;20038;-77
2022/11/24 02:26:30;;;;;;;12.93;8.73;;;6.90;93.90;;;;;;5014828;28;20403;-77
2022/11/24 02:28:56;;;;;;;15.03;8.53;;;6.90;93.90;;;;;;5014278;28;20496;-77
2022/11/24 02:31:22;;;;;;;15.40;8.80;;;6.90;93.90;;;;;;5014900;28;20085;-77
2022/11/24 02:33:49;;;;;;;12.57;8.63;;;6.90;93.90;;;;;;5014819;28;20033;-77
2022/11/24 02:36:15;;;;;;;14.00;9.27;;;6.90;93.80;;;;;;5014149;28;20088;-77
2022/11/24 02:38:40;;;;;;;22.03;9.43;;;6.90;93.80;;;;;;5014720;28;20053;-78
2022/11/24 02:41:10;;;;;;;16.33;8.73;;;6.90;93.80;;;;;;5014826;28;20033;-77
2022/11/24 02:43:52;;;;;;;20.63;8.97;;;6.90;93.90;;;;;;5014353;28;20042;-77
2022/11/24 02:46:18;;;;;;;19.47;9.03;;;6.90;93.90;;;;;;5014503;28;20041;-77
2022/11/24 02:48:43;;;;;;;15.93;9.30;;;7.00;93.80;;;;;;5014536;28;20385;-78
2022/11/24 02:51:09;;;;;;;15.13;9.47;;;6.90;93.70;;;;;;5014304;28;20037;-77
2022/11/24 02:53:34;;;;;;;20.43;8.97;;;6.90;93.80;;;;;;5014530;28;20092;-77
2022/11/24 02:56:00;;;;;;;13.33;9.03;;;6.90;93.80;;;;;;5014368;28;20526;-77
2022/11/24 02:58:26;;;;;;;16.73;9.07;;;6.90;93.90;;;;;;5014514;28;20061;-77
2022/11/24 03:00:53;;;;;;;16.13;8.73;;;6.90;93.80;;;;;;5014494;28;20489;-77
2022/11/24 03:03:22;;;;;;;17.30;9.07;;;6.90;93.80;;;;;;5014247;28;20030;-77
2022/11/24 03:05:48;;;;;;;16.30;8.73;;;6.90;93.90;;;;;;5014409;28;20034;-78
2022/11/24 03:08:14;;;;;;;12.73;8.90;;;6.90;93.90;;;;;;5014405;28;20092;-77
2022/11/24 03:10:40;;;;;;;11.10;8.43;;;6.90;93.90;;;;;;5014289;28;20496;-77
2022/11/24 03:13:06;;;;;;;12.47;8.43;;;6.90;94.00;;;;;;5014203;28;20026;-77
2022/11/24 03:15:31;;;;;;;13.83;8.50;;;6.90;94.00;;;;;;5013942;28;20052;-77
2022/11/24 03:17:57;;;;;;;12.90;8.97;;;6.90;94.00;;;;;;5014125;28;20034;-77
2022/11/24 03:20:24;;;;;;;12.83;8.63;;;6.90;93.90;;;;;;5013883;28;20596;-77
2022/11/24 03:22:49;;;;;;;14.60;8.33;;;6.90;93.80;;;;;;5014127;28;20062;-77
2022/11/24 03:25:15;;;;;;;16.63;8.90;;;6.90;93.80;;;;;;5013848;28;20531;-77
2022/11/24 03:27:41;;;;;;;13.50;8.73;;;6.80;93.70;;;;;;5013649;28;20026;-77
2022/11/24 03:30:07;;;;;;;12.20;8.70;;;6.80;93.70;;;;;;5013816;28;20092;-77
2022/11/24 03:32:33;;;;;;;12.37;8.30;;;6.80;93.80;;;;;;5013748;28;20073;-77
2022/11/24 03:34:59;;;;;;;16.10;9.13;;;6.80;93.80;;;;;;5013330;28;20046;-77
2022/11/24 03:37:25;;;;;;;14.70;8.77;;;6.80;93.80;;;;;;5013632;28;20030;-77
2022/11/24 03:39:50;;;;;;;16.30;9.33;;;6.80;93.80;;;;;;5014073;28;20045;-77
2022/11/24 03:42:16;;;;;;;17.13;8.37;;;6.80;93.70;;;;;;5013540;28;20484;-77
2022/11/24 03:44:41;;;;;;;15.63;8.53;;;6.70;93.50;;;;;;5013588;28;20030;-77
2022/11/24 03:47:09;;;;;;;14.40;8.80;;;6.70;93.50;;;;;;5012888;28;20041;-77
2022/11/24 03:49:35;;;;;;;12.03;7.73;;;6.70;93.50;;;;;;5013706;28;20045;-78
2022/11/24 03:52:00;;;;;;;11.07;7.43;;;6.60;93.60;;;;;;5013663;28;20029;-77
2022/11/24 03:54:26;;;;;;;11.07;7.23;;;6.60;93.60;;;;;;5013513;28;20488;-77
2022/11/24 03:56:52;;;;;;;15.90;8.07;;;6.60;93.60;;;;;;5013258;28;20025;-77
2022/11/24 03:59:18;;;;;;;13.43;7.20;;;6.60;93.50;;;;;;5013131;28;20073;-78
2022/11/24 04:01:44;;;;;;;13.20;7.30;;;6.60;93.50;;;;;;5013349;28;20087;-77
2022/11/24 04:04:10;;;;;;;11.67;7.73;;;6.60;93.50;;;;;;5013136;28;20046;-78
2022/11/24 04:06:36;;;;;;;14.23;6.97;;;6.50;93.50;;;;;;5013193;28;20044;-77
2022/11/24 04:09:02;;;;;;;11.77;7.17;;;6.50;93.60;;;;;;5013252;28;20034;-78
2022/11/24 04:14:12;;;;;;;10.83;6.87;;;6.50;93.70;;;;;;5013341;28;20192;-78
2022/11/24 04:16:38;;;;;;;13.10;7.10;;;6.50;93.60;;;;;;5013175;28;20536;-78
2022/11/24 04:19:04;;;;;;;15.43;7.27;;;6.50;93.60;;;;;;5013108;28;20109;-77
2022/11/24 04:21:30;;;;;;;13.23;7.70;;;6.50;93.60;;;;;;5013176;28;20113;-77
2022/11/24 04:23:56;;;;;;;10.20;6.77;;;6.40;93.70;;;;;;5013329;28;20141;-77
2022/11/24 04:26:22;;;;;;;15.07;7.00;;;6.40;93.70;;;;;;5012874;28;20037;-77
2022/11/24 04:28:47;;;;;;;10.23;7.10;;;6.40;93.70;;;;;;5013023;28;20512;-77
2022/11/24 04:31:13;;;;;;;10.40;6.50;;;6.40;93.70;;;;;;5012918;28;20092;-77
2022/11/24 04:33:39;;;;;;;11.73;6.40;;;6.40;93.70;;;;;;5012946;28;20423;-78
2022/11/24 04:36:05;;;;;;;12.33;6.03;;;6.40;93.60;;;;;;5013306;28;20050;-77
2022/11/24 04:38:30;;;;;;;10.43;6.27;;;6.40;93.70;;;;;;5013292;28;20034;-77
2022/11/24 04:41:02;;;;;;;12.50;6.63;;;6.40;93.70;;;;;;5013020;28;20121;-77
2022/11/24 04:43:28;;;;;;;10.87;6.50;;;6.40;93.70;;;;;;5013261;28;20041;-77
2022/11/24 04:45:54;;;;;;;11.30;6.13;;;6.40;93.80;;;;;;5012764;28;20081;-77
2022/11/24 04:48:20;;;;;;;8.80;5.47;;;6.40;93.90;;;;;;5013202;28;20443;-77
2022/11/24 04:50:46;;;;;;;12.27;6.00;;;6.40;93.90;;;;;;5012717;28;20034;-77
2022/11/24 04:53:12;;;;;;;7.17;5.13;;;6.40;93.90;;;;;;5013057;28;20109;-77
2022/11/24 04:55:39;;;;;;;9.03;5.97;;;6.40;93.90;;;;;;5012463;28;20073;-78
2022/11/24 04:58:07;;;;;;;15.07;6.43;;;6.40;93.90;;;;;;5012677;28;20034;-77
2022/11/24 05:00:33;;;;;;;9.00;6.37;;;6.40;93.90;;;;;;5016469;28;20034;-77
2022/11/24 05:02:59;;;;;;;18.37;6.40;;;6.40;94.20;;;;;;5016723;28;20053;-77
2022/11/24 05:05:24;;;;;;;12.10;6.23;;;6.40;93.90;;;;;;5016757;28;20034;-77
2022/11/24 05:07:50;;;;;;;13.20;6.30;;;6.40;93.80;;;;;;5016380;28;20042;-77
2022/11/24 05:10:34;;;;;;;13.43;6.13;;;6.40;93.80;;;;;;5016369;28;20116;-77
2022/11/24 05:13:02;;;;;;;8.90;5.67;;;6.30;93.80;;;;;;5016445;28;20030;-77
2022/11/24 05:15:28;;;;;;;8.40;5.93;;;6.30;93.70;;;;;;5016260;28;20049;-78
2022/11/24 05:17:54;;;;;;;9.47;5.90;;;6.30;93.70;;;;;;5016328;28;20034;-78
2022/11/24 05:20:20;;;;;;;11.53;6.43;;;6.30;93.90;;;;;;5016474;28;20030;-77
2022/11/24 05:22:45;;;;;;;9.17;5.87;;;6.30;93.80;;;;;;5016073;28;20038;-77
2022/11/24 05:25:13;;;;;;;9.00;5.77;;;6.30;93.80;;;;;;5016131;28;20034;-78
2022/11/24 05:27:38;;;;;;;8.87;6.13;;;6.30;93.80;;;;;;5016044;28;20476;-77
2022/11/24 05:30:05;;;;;;;12.10;5.73;;;6.30;93.90;;;;;;5016055;28;20041;-77
2022/11/24 05:32:30;;;;;;;9.10;5.40;;;6.30;93.80;;;;;;5015897;28;20506;-77
2022/11/24 05:34:57;;;;;;;13.63;5.50;;;6.30;93.80;;;;;;5016119;28;20073;-77
2022/11/24 05:37:24;;;;;;;9.30;5.80;;;6.20;93.70;;;;;;5015653;28;20042;-77
2022/11/24 05:39:50;;;;;;;9.13;5.87;;;6.20;93.60;;;;;;5016214;28;20060;-77
2022/11/24 05:45:00;;;;;;;10.50;6.40;;;6.20;93.70;;;;;;5015661;28;20037;-77
2022/11/24 05:47:25;;;;;;;9.27;6.57;;;6.20;93.60;;;;;;5015780;28;20038;-77
2022/11/24 05:49:51;;;;;;;10.03;6.40;;;6.10;93.60;;;;;;5015521;28;20037;-77
2022/11/24 05:52:17;;;;;;;9.20;5.63;;;6.10;93.60;;;;;;5015520;28;20042;-77
2022/11/24 05:54:42;;;;;;;7.23;5.40;;;6.10;93.60;;;;;;5015600;28;20074;-77
2022/11/24 05:57:08;;;;;;;7.77;5.53;;;6.00;93.60;;;;;;5015573;28;20034;-77
2022/11/24 05:59:34;;;;;;;11.47;5.47;;;6.00;93.60;;;;;;5015598;28;20096;-77
2022/11/24 06:02:00;;;;;;;12.67;5.80;;;6.00;93.50;;;;;;5015618;28;20481;-77
2022/11/24 06:04:25;;;;;;;10.77;5.73;;;6.00;93.50;;;;;;5015376;28;20030;-76
2022/11/24 06:06:51;;;;;;;14.47;6.37;;;6.00;93.50;;;;;;5015208;28;20034;-76
2022/11/24 06:09:17;;;;;;;10.80;5.77;;;5.90;93.50;;;;;;5014814;28;20038;-78
2022/11/24 06:11:42;;;;;;;9.50;6.33;;;5.90;93.50;;;;;;5015396;28;20041;-77
2022/11/24 06:14:09;;;;;;;11.33;6.07;;;5.90;93.50;;;;;;5015231;28;20397;-77
2022/11/24 06:16:35;;;;;;;11.20;6.77;;;5.90;93.50;;;;;;5015276;28;20030;-77
2022/11/24 06:19:01;;;;;;;13.47;7.00;;;5.90;93.60;;;;;;5015263;28;20030;-77
2022/11/24 06:21:27;;;;;;;14.63;7.30;;;5.90;93.70;;;;;;5014934;28;20112;-77
2022/11/24 06:23:52;;;;;;;12.83;7.07;;;5.90;93.70;;;;;;5015036;28;20119;-77
2022/11/24 06:26:18;;;;;;;12.37;6.60;;;5.90;93.80;;;;;;5014971;28;20508;-77
2022/11/24 06:28:44;;;;;;;14.90;7.00;;;5.90;93.90;;;;;;5014922;28;20045;-77
2022/11/24 06:31:10;;;;;;;11.03;6.57;;;5.90;93.80;;;;;;5014834;28;20077;-78
2022/11/24 06:33:37;;;;;;;11.93;7.43;;;5.90;93.70;;;;;;5014794;28;20488;-77
2022/11/24 06:36:05;;;;;;;13.83;7.43;;;5.90;93.70;;;;;;5014725;28;20077;-77
2022/11/24 06:38:31;;;;;;;10.53;6.53;;;5.90;93.80;;;;;;5014904;28;20042;-77
2022/11/24 06:41:06;;;;;;;8.47;6.57;;;5.80;93.90;;;;;;5014542;28;20467;-77
2022/11/24 06:43:34;;;;;;;10.73;6.30;;;5.90;94.00;;;;;;5014505;28;20034;-76
2022/11/24 06:46:00;;;;;;;8.80;6.43;;;5.80;94.00;;;;;;5014482;28;20068;-77
2022/11/24 06:48:27;;;;;;;13.00;6.83;;;5.90;94.00;;;;;;5014345;28;20026;-77
2022/11/24 06:50:57;;;;;;;12.17;7.53;;;5.90;93.90;;;;;;5014523;28;20034;-78
2022/11/24 06:53:22;;;;;;;12.60;8.00;;;5.90;94.00;;;;;;5014530;28;20034;-77
2022/11/24 06:55:49;;;;;;;15.70;8.33;;;5.90;94.10;;;;;;5014434;28;20049;-77
2022/11/24 06:58:14;;;;;;;14.70;7.87;;;5.90;94.10;;;;;;5014261;28;20041;-76
2022/11/24 07:00:40;;;;;;;14.57;7.70;;;5.90;94.10;;;;;;5014344;28;20033;-77
2022/11/24 07:03:06;;;;;;;16.73;8.60;;;5.90;94.20;;;;;;5014201;28;20034;-77
2022/11/24 07:05:32;;;;;;;13.30;7.77;;;5.90;94.40;;;;;;5014343;28;20528;-77
2022/11/24 07:08:00;;;;;;;11.77;7.43;;;5.90;94.40;;;;;;5014472;28;20033;-76
2022/11/24 07:10:26;;;;;;;13.40;6.57;;;5.90;94.50;;;;;;5014098;28;20491;-77
2022/11/24 07:12:52;;;;;;;13.87;6.67;;;6.00;94.60;;;;;;5014111;28;20111;-77
2022/11/24 07:15:17;;;;;;;11.17;7.33;;;6.00;94.60;;;;;;5014360;28;20038;-77
2022/11/24 07:17:43;;;;;;;10.70;6.07;;;6.10;94.70;;;;;;5014198;28;20069;-77
2022/11/24 07:20:09;;;;;;;16.50;6.53;;;6.10;94.60;;;;;;5012264;28;20037;-77
2022/11/24 07:22:35;;;;;;;15.67;7.10;;;6.20;94.70;;;;;;5011515;28;20046;-77
2022/11/24 07:25:01;;;;;;;10.77;6.63;;;6.20;94.70;;;;;;5013312;28;20062;-77
2022/11/24 07:27:29;;;;;;;17.03;6.77;;;6.30;94.80;;;;;;5013268;28;20050;-76
2022/11/24 07:29:54;;;;;;;13.80;5.70;;;6.30;94.80;;;;;;5012969;28;20068;-77
2022/11/24 07:32:20;;;;;;;25.07;7.93;;;6.40;94.90;;;;;;5013006;28;20117;-77
2022/11/24 07:34:46;;;;;;;21.83;7.97;;;6.40;94.70;;;;;;5012954;28;20038;-77
2022/11/24 07:37:11;;;;;;;16.60;6.67;;;6.50;94.70;;;;;;5013214;28;20391;-78
2022/11/24 07:39:37;;;;;;;11.10;6.53;;;6.60;94.60;;;;;;5013182;28;20037;-78
2022/11/24 07:42:04;;;;;;;11.47;5.80;;;6.60;94.50;;;;;;5013280;28;20029;-79
2022/11/24 07:44:30;;;;;;;7.20;5.10;;;6.70;94.50;;;;;;5012933;28;20042;-78
2022/11/24 07:46:55;;;;;;;9.93;5.03;;;6.80;94.50;;;;;;5013298;28;20060;-80
2022/11/24 07:49:21;;;;;;;14.20;6.87;;;6.80;94.40;;;;;;5013125;28;20030;-79
2022/11/24 07:51:47;;;;;;;15.03;8.30;;;6.90;94.40;;;;;;5013059;28;20040;-81
2022/11/24 07:54:13;;;;;;;12.73;7.57;;;6.90;94.40;;;;;;5012900;28;20207;-74
2022/11/24 07:56:39;;;;;;;19.00;9.93;;;7.00;94.30;;;;;;5013182;28;20034;-79
2022/11/24 07:59:04;;;;;;;22.90;11.10;;;7.10;94.20;;;;;;5012552;28;20124;-78
2022/11/24 08:01:30;;;;;;;24.07;11.27;;;7.10;94.00;;;;;;4989642;28;20050;-70
2022/11/24 08:03:56;;;;;;;26.47;10.67;;;7.20;94.00;;;;;;5032391;28;20071;-69
2022/11/24 08:06:22;;;;;;;22.10;11.87;;;7.20;94.20;;;;;;5032358;28;20045;-69
2022/11/24 08:08:48;;;;;;;28.40;12.07;;;7.30;94.20;;;;;;5032390;28;20112;-69
2022/11/24 08:11:16;;;;;;;29.67;11.57;;;7.30;94.30;;;;;;5032703;28;20105;-69
2022/11/24 08:13:43;;;;;;;18.70;11.10;;;7.40;94.40;;;;;;5032438;28;20510;-69
2022/11/24 08:16:11;;;;;;;19.80;11.40;;;7.40;94.20;;;;;;5032955;28;20064;-69
2022/11/24 08:18:38;;;;;;;26.60;11.33;;;7.50;94.00;;;;;;5032794;28;20072;-69
2022/11/24 08:21:04;;;;;;;21.83;10.20;;;7.50;94.40;;;;;;5032760;28;20060;-69
2022/11/24 08:23:30;;;;;;;24.77;9.77;;;7.50;94.50;;;;;;5032946;28;20037;-69
2022/11/24 08:26:01;;;;;;;17.60;9.07;;;7.60;94.20;;;;;;5032540;28;20395;-69
2022/11/24 08:28:27;;;;;;;18.17;9.17;;;7.60;94.10;;;;;;5032476;28;20068;-69
2022/11/24 08:31:01;;;;;;;24.20;9.27;;;7.70;93.80;;;;;;5033035;28;20037;-69
2022/11/24 08:33:27;;;;;;;20.77;9.60;;;7.70;93.90;;;;;;5034873;28;20064;-69
2022/11/24 08:35:52;;;;;;;28.73;10.13;;;7.70;93.80;;;;;;5036541;28;20072;-69
2022/11/24 08:38:18;;;;;;;28.70;11.17;;;7.80;93.90;;;;;;5036728;28;20033;-69
2022/11/24 08:40:43;;;;;;;24.60;10.97;;;7.90;93.70;;;;;;5036615;28;20041;-69
2022/11/24 08:43:09;;;;;;;27.70;11.23;;;7.90;93.80;;;;;;5036409;28;20392;-69
2022/11/24 08:45:35;;;;;;;32.27;11.47;;;7.90;93.80;;;;;;5036661;28;20438;-69
2022/11/24 08:48:00;;;;;;;24.20;10.13;;;8.00;93.70;;;;;;5036611;28;20033;-69
2022/11/24 08:50:26;;;;;;;23.80;10.73;;;8.10;93.60;;;;;;5036543;28;20042;-69
2022/11/24 08:52:52;;;;;;;22.00;9.53;;;8.10;93.70;;;;;;5036278;28;20033;-69
2022/11/24 08:55:18;;;;;;;19.43;10.07;;;8.10;93.50;;;;;;5036097;28;20049;-69
2022/11/24 08:57:44;;;;;;;27.33;9.93;;;8.10;93.50;;;;;;5036149;28;20033;-70
2022/11/24 09:00:11;;;;;;;22.63;10.33;;;8.20;93.60;;;;;;5036467;28;20037;-69
2022/11/24 09:02:37;;;;;;;20.60;9.50;;;8.20;93.60;;;;;;5036412;28;20419;-68
2022/11/24 09:05:03;;;;;;;19.87;9.00;;;8.30;93.70;;;;;;5036249;28;20045;-69
2022/11/24 09:07:29;;;;;;;18.90;9.73;;;8.40;93.70;;;;;;5036054;28;20042;-69
2022/11/24 09:09:54;;;;;;;20.47;9.93;;;8.50;93.70;;;;;;5036147;28;20411;-69
2022/11/24 09:12:20;;;;;;;19.73;10.10;;;8.50;93.70;;;;;;5036339;28;20475;-69
2022/11/24 09:14:45;;;;;;;18.90;9.50;;;8.50;93.80;;;;;;5036135;28;20522;-69
2022/11/24 09:17:11;;;;;;;20.80;9.30;;;8.60;93.90;;;;;;5036201;28;20395;-69
2022/11/24 09:19:37;;;;;;;15.73;9.27;;;8.70;93.80;;;;;;5035684;28;20439;-70
2022/11/24 09:22:03;;;;;;;18.97;8.83;;;8.70;93.70;;;;;;5035937;28;20065;-69
2022/11/24 09:24:29;;;;;;;17.77;8.67;;;8.80;93.90;;;;;;5035824;28;20470;-69
2022/11/24 09:26:55;;;;;;;16.97;8.30;;;8.80;93.90;;;;;;5035627;28;20033;-67
2022/11/24 09:29:21;;;;;;;16.83;6.73;;;8.90;93.90;;;;;;5035797;28;20048;-69
2022/11/24 09:31:46;;;;;;;11.70;7.00;;;8.90;94.00;;;;;;5035789;28;20038;-67
2022/11/24 09:34:14;;;;;;;14.47;7.80;;;9.00;93.80;;;;;;5035883;28;20037;-67
2022/11/24 09:36:40;;;;;;;14.13;6.10;;;9.10;93.60;;;;;;5035710;28;20491;-67
2022/11/24 09:39:06;;;;;;;15.53;3.97;;;9.10;93.50;;;;;;5035704;28;20030;-69
2022/11/24 09:41:40;;;;;;;12.90;4.20;;;9.20;93.50;;;;;;5035656;28;20025;-70
2022/11/24 09:44:15;;;;;;;10.80;5.57;;;9.20;93.10;;;;;;5034663;28;20042;-69
2022/11/24 09:46:53;;;;;;;14.27;7.03;;;9.30;92.90;;;;;;5035665;28;20037;-67
2022/11/24 09:49:57;;;;;;;21.80;7.23;;;9.40;93.30;;;;;;5035461;28;20092;-69
2022/11/24 09:52:47;;;;;;;19.80;7.27;;;9.40;93.40;;;;;;5032917;28;20497;-69
2022/11/24 09:55:37;;;;;;;17.30;7.47;;;9.40;93.50;;;;;;5035613;28;20076;-69
2022/11/24 09:58:13;;;;;;;14.13;7.47;;;9.40;93.50;;;;;;5035178;28;20480;-69
2022/11/24 10:00:40;;;;;;;12.43;7.73;;;9.50;93.30;;;;;;5035533;28;20037;-69
2022/11/24 10:03:09;;;;;;;9.97;6.27;;;9.40;93.60;;;;;;5035103;28;20057;-69
2022/11/24 10:05:35;;;;;;;14.93;6.37;;;9.40;93.40;;;;;;5035180;28;20037;-70
2022/11/24 10:08:38;;;;;;;14.07;7.10;;;9.40;93.40;;;;;;5035181;28;20503;-69
2022/11/24 10:11:13;;;;;;;9.35;5.88;;;9.50;93.50;;;;;;5035216;28;20488;-70
2022/11/24 10:13:58;;;;;;;14.57;6.60;;;9.50;93.40;;;;;;5034925;28;20103;-69
2022/11/24 10:16:46;;;;;;;11.13;6.33;;;9.50;93.40;;;;;;5035095;28;20045;-68
2022/11/24 10:19:30;;;;;;;11.70;6.50;;;9.50;93.30;;;;;;5035142;28;20037;-69
2022/11/24 10:22:19;;;;;;;14.97;6.80;;;9.60;93.20;;;;;;5034708;28;20025;-67
2022/11/24 10:25:09;;;;;;;11.73;6.40;;;9.60;93.20;;;;;;5034767;28;20041;-70
2022/11/24 10:27:47;;;;;;;12.70;6.10;;;9.60;93.10;;;;;;5034530;28;20033;-69
2022/11/24 10:30:22;;;;;;;13.00;6.37;;;9.70;93.40;;;;;;5034790;28;20399;-69
2022/11/24 10:33:10;;;;;;;14.27;6.80;;;9.80;93.50;;;;;;5034796;28;20056;-69
2022/11/24 10:35:39;;;;;;;11.73;5.47;;;9.90;93.40;;;;;;5033564;28;20053;-69
2022/11/24 10:38:31;;;;;;;12.40;5.93;;;10.00;93.20;;;;;;5034592;28;20083;-69
2022/11/24 10:41:07;;;;;;;9.33;6.00;;;10.10;93.10;;;;;;5021519;28;20163;-67
2022/11/24 10:43:33;;;;;;;10.87;5.73;;;10.10;93.10;;;;;;5034268;28;20034;-68
2022/11/24 10:46:13;;;;;;;5.83;4.20;;;10.20;93.10;;;;;;5034288;28;20021;-67
2022/11/24 10:48:46;;;;;;;6.10;3.07;;;10.30;93.00;;;;;;5034505;28;20419;-68
2022/11/24 10:51:46;;;;;;;6.53;3.40;;;10.40;92.60;;;;;;5034419;28;20072;-67
2022/11/24 10:54:17;;;;;;;8.68;3.78;;;10.50;92.40;;;;;;5034159;28;20120;-68
2022/11/24 10:56:44;;;;;;;10.67;4.10;;;10.50;92.30;;;;;;5034156;28;20037;-68
2022/11/24 10:59:36;;;;;;;7.23;3.93;;;10.60;92.20;;;;;;5034237;28;20116;-68
2022/11/24 11:02:29;;;;;;;8.87;4.67;;;10.60;92.00;;;;;;5029724;28;20456;-68
2022/11/24 11:04:55;;;;;;;9.40;4.93;;;10.80;92.00;;;;;;5034271;28;20029;-68
2022/11/24 11:07:24;;;;;;;10.30;4.30;;;10.80;91.40;;;;;;5034161;28;20038;-68
2022/11/24 11:09:50;;;;;;;8.07;4.63;;;10.80;91.30;;;;;;5034101;28;20038;-68
2022/11/24 11:12:36;;;;;;;12.85;4.32;;;10.90;91.40;;;;;;5034223;28;20034;-68
2022/11/24 11:15:25;;;;;;;7.25;4.57;;;11.00;91.50;;;;;;5033223;28;20132;-68
2022/11/24 11:17:56;;;;;;;8.82;3.75;;;11.10;91.40;;;;;;5033832;28;20763;-68
2022/11/24 11:20:26;;;;;;;7.55;3.28;;;11.10;91.10;;;;;;5033848;28;20128;-67
2022/11/24 11:22:53;;;;;;;7.15;2.80;;;11.20;91.00;;;;;;5033781;28;20041;-68
2022/11/24 11:25:31;;;;;;;11.40;3.00;;;11.30;90.60;;;;;;5033424;28;20277;-68
2022/11/24 11:28:26;;;;;;;7.35;2.72;;;11.40;90.60;;;;;;5033584;28;20466;-68
2022/11/24 11:31:04;;;;;;;4.57;2.70;;;11.40;90.60;;;;;;5033686;28;20041;-68
2022/11/24 11:33:31;;;;;;;8.50;2.20;;;11.50;90.80;;;;;;5033536;28;20051;-68
2022/11/24 11:36:00;;;;;;;6.13;2.30;;;11.50;90.70;;;;;;5032950;28;20045;-68
2022/11/24 11:38:32;;;;;;;2.63;1.58;;;11.60;90.60;;;;;;5015477;28;20387;-68
2022/11/24 11:41:00;;;;;;;4.18;1.73;;;11.60;90.50;;;;;;5033317;28;20459;-68
2022/11/24 11:43:30;;;;;;;3.40;1.60;;;11.70;90.30;;;;;;5033522;28;20048;-68
2022/11/24 11:46:09;;;;;;;3.13;1.50;;;11.80;89.70;;;;;;5033377;28;20076;-68
2022/11/24 11:48:37;;;;;;;3.75;1.20;;;11.90;89.30;;;;;;5033028;28;20034;-68
2022/11/24 11:51:28;;;;;;;4.30;1.25;;;11.90;89.30;;;;;;5033087;28;20034;-68
2022/11/24 11:53:57;;;;;;;3.90;1.10;;;12.00;89.20;;;;;;5033288;28;20065;-67
2022/11/24 11:56:44;;;;;;;4.10;1.20;;;12.00;89.00;;;;;;5033048;28;20069;-67
2022/11/24 11:59:22;;;;;;;1.83;1.25;;;12.10;89.80;;;;;;5015392;28;20506;-68
2022/11/24 12:02:22;;;;;;;3.00;1.33;;;12.10;89.20;;;;;;5033125;28;20137;-67
2022/11/24 12:04:58;;;;;;;1.90;1.17;;;12.10;88.70;;;;;;5032117;28;20037;-68
2022/11/24 12:07:42;;;;;;;3.55;1.23;;;12.20;88.20;;;;;;5032112;28;20735;-67
2022/11/24 12:10:48;;;;;;;1.80;1.10;;;12.20;88.30;;;;;;5032667;28;20391;-68
2022/11/24 12:13:40;;;;;;;2.25;1.10;;;12.30;88.90;;;;;;4994536;28;20037;-67
2022/11/24 12:16:46;;;;;;;3.45;1.75;;;12.30;88.90;;;;;;5041708;28;20120;-67
2022/11/24 12:19:20;;;;;;;4.38;1.42;;;12.30;88.60;;;;;;5049381;28;20037;-68
2022/11/24 12:22:26;;;;;;;4.30;1.60;;;12.40;88.30;;;;;;5052662;28;20033;-67
2022/11/24 12:25:29;;;;;;;2.50;1.40;;;12.40;88.60;;;;;;5011705;28;20495;-68
2022/11/24 12:28:09;;;;;;;2.07;1.37;;;12.40;88.30;;;;;;5052477;28;20150;-68
2022/11/24 12:31:04;;;;;;;3.97;2.05;;;12.40;88.20;;;;;;5052336;28;20339;-70
2022/11/24 12:33:38;;;;;;;2.58;1.65;;;12.50;88.40;;;;;;5044607;28;20033;-68
2022/11/24 12:36:42;;;;;;;5.03;2.13;;;12.50;88.20;;;;;;5052205;28;20402;-68
2022/11/24 12:39:25;;;;;;;4.82;1.77;;;12.50;88.10;;;;;;5052294;28;20395;-67
2022/11/24 12:42:06;;;;;;;4.43;1.23;;;12.60;88.30;;;;;;5052596;28;20119;-68
2022/11/24 12:45:00;;;;;;;6.70;1.98;;;12.60;87.50;;;;;;5052423;28;20041;-67
2022/11/24 12:47:57;;;;;;;1.60;0.90;;;12.60;86.80;;;;;;5023063;28;20364;-67
2022/11/24 12:50:27;;;;;;;5.25;1.00;;;12.70;85.50;;;;;;5052575;28;20033;-67
2022/11/24 12:53:03;;;;;;;4.93;1.00;;;12.70;86.30;;;;;;5052539;28;20040;-67
2022/11/24 12:55:32;;;;;;;3.75;1.27;;;12.70;86.50;;;;;;5052250;28;20042;-67
2022/11/24 12:58:16;;;;;;;3.25;1.20;;;12.70;86.30;;;;;;5052431;28;20040;-67
2022/11/24 13:01:08;;;;;;;4.07;1.40;;;12.70;86.60;;;;;;5052490;28;20033;-67
2022/11/24 13:03:37;;;;;;;2.87;1.40;;;12.70;86.70;;;;;;5052429;28;20029;-67
2022/11/24 13:06:21;;;;;;;2.45;1.40;;;12.70;86.70;;;;;;5052370;28;20037;-67
2022/11/24 13:08:47;;;;;;;1.77;1.10;;;12.70;87.20;;;;;;5052412;28;20030;-66